sensor_id;sensor_type;location;lat;lon;timestamp;temperature;humidity
17208;DHT22;8720;48.488;9.202;2022-11-20T00:01:21;9.10;57.30
17208;DHT22;8720;48.488;9.202;2022-11-20T00:03:51;9.10;57.20
17208;DHT22;8720;48.488;9.202;2022-11-20T00:06:22;9.00;57.20
17208;DHT22;8720;48.488;9.202;2022-11-20T00:08:51;8.90;57.10
17208;DHT22;8720;48.488;9.202;2022-11-20T00:11:23;8.90;57.30
17208;DHT22;8720;48.488;9.202;2022-11-20T00:13:53;8.90;57.40
17208;DHT22;8720;48.488;9.202;2022-11-20T00:16:25;8.80;57.40
17208;DHT22;8720;48.488;9.202;2022-11-20T00:18:53;8.80;57.40
17208;DHT22;8720;48.488;9.202;2022-11-20T00:21:24;8.70;57.50
17208;DHT22;8720;48.488;9.202;2022-11-20T00:23:55;8.70;57.60
17208;DHT22;8720;48.488;9.202;2022-11-20T00:26:24;8.60;57.50
17208;DHT22;8720;48.488;9.202;2022-11-20T00:28:54;8.60;57.60
17208;DHT22;8720;48.488;9.202;2022-11-20T00:31:22;8.50;57.60
17208;DHT22;8720;48.488;9.202;2022-11-20T00:33:50;8.50;57.80
17208;DHT22;8720;48.488;9.202;2022-11-20T00:36:19;8.40;57.80
17208;DHT22;8720;48.488;9.202;2022-11-20T00:38:51;8.40;57.90
17208;DHT22;8720;48.488;9.202;2022-11-20T00:41:19;8.40;58.00
17208;DHT22;8720;48.488;9.202;2022-11-20T00:43:47;8.30;58.10
17208;DHT22;8720;48.488;9.202;2022-11-20T00:46:16;8.30;58.10
17208;DHT22;8720;48.488;9.202;2022-11-20T00:48:47;8.30;58.10
17208;DHT22;8720;48.488;9.202;2022-11-20T00:51:17;8.20;58.20
17208;DHT22;8720;48.488;9.202;2022-11-20T00:53:54;8.20;58.30
17208;DHT22;8720;48.488;9.202;2022-11-20T00:56:22;8.20;58.30
17208;DHT22;8720;48.488;9.202;2022-11-20T00:58:49;8.20;58.50
17208;DHT22;8720;48.488;9.202;2022-11-20T01:01:19;8.10;58.60
17208;DHT22;8720;48.488;9.202;2022-11-20T01:03:51;8.10;58.60
17208;DHT22;8720;48.488;9.202;2022-11-20T01:06:21;8.10;58.80
17208;DHT22;8720;48.488;9.202;2022-11-20T01:08:52;8.00;58.70
17208;DHT22;8720;48.488;9.202;2022-11-20T01:11:23;8.00;58.90
17208;DHT22;8720;48.488;9.202;2022-11-20T01:13:53;8.00;59.00
17208;DHT22;8720;48.488;9.202;2022-11-20T01:16:23;8.00;59.10
17208;DHT22;8720;48.488;9.202;2022-11-20T01:18:53;8.00;59.20
17208;DHT22;8720;48.488;9.202;2022-11-20T01:21:24;7.90;59.10
17208;DHT22;8720;48.488;9.202;2022-11-20T01:23:56;7.90;59.10
17208;DHT22;8720;48.488;9.202;2022-11-20T01:26:28;7.90;59.20
17208;DHT22;8720;48.488;9.202;2022-11-20T01:28:58;7.90;59.20
17208;DHT22;8720;48.488;9.202;2022-11-20T01:31:30;7.90;59.20
17208;DHT22;8720;48.488;9.202;2022-11-20T01:33:59;7.80;59.20
17208;DHT22;8720;48.488;9.202;2022-11-20T01:36:29;7.80;59.30
17208;DHT22;8720;48.488;9.202;2022-11-20T01:39:02;7.80;59.30
17208;DHT22;8720;48.488;9.202;2022-11-20T01:41:32;7.80;59.40
17208;DHT22;8720;48.488;9.202;2022-11-20T01:44:20;7.80;59.40
17208;DHT22;8720;48.488;9.202;2022-11-20T01:46:54;7.80;59.50
17208;DHT22;8720;48.488;9.202;2022-11-20T01:49:31;7.80;59.40
17208;DHT22;8720;48.488;9.202;2022-11-20T01:52:09;7.80;59.40
17208;DHT22;8720;48.488;9.202;2022-11-20T01:54:46;7.70;59.40
17208;DHT22;8720;48.488;9.202;2022-11-20T01:57:23;7.70;59.40
17208;DHT22;8720;48.488;9.202;2022-11-20T01:59:57;7.70;59.50
17208;DHT22;8720;48.488;9.202;2022-11-20T02:02:39;7.70;59.50
17208;DHT22;8720;48.488;9.202;2022-11-20T02:05:17;7.70;60.00
17208;DHT22;8720;48.488;9.202;2022-11-20T02:07:49;7.70;59.40
17208;DHT22;8720;48.488;9.202;2022-11-20T02:10:18;7.70;59.50
17208;DHT22;8720;48.488;9.202;2022-11-20T02:12:46;7.60;59.40
17208;DHT22;8720;48.488;9.202;2022-11-20T02:15:32;7.60;59.40
17208;DHT22;8720;48.488;9.202;2022-11-20T02:18:00;7.60;59.30
17208;DHT22;8720;48.488;9.202;2022-11-20T02:20:27;7.60;59.50
17208;DHT22;8720;48.488;9.202;2022-11-20T02:22:57;7.60;59.60
17208;DHT22;8720;48.488;9.202;2022-11-20T02:25:33;7.60;59.50
17208;DHT22;8720;48.488;9.202;2022-11-20T02:28:02;7.70;59.60
17208;DHT22;8720;48.488;9.202;2022-11-20T02:30:30;7.70;59.80
17208;DHT22;8720;48.488;9.202;2022-11-20T02:32:57;7.80;59.90
17208;DHT22;8720;48.488;9.202;2022-11-20T02:35:42;7.80;59.80
17208;DHT22;8720;48.488;9.202;2022-11-20T02:38:11;7.90;59.20
17208;DHT22;8720;48.488;9.202;2022-11-20T02:40:43;8.00;59.80
17208;DHT22;8720;48.488;9.202;2022-11-20T02:43:11;8.00;59.50
17208;DHT22;8720;48.488;9.202;2022-11-20T02:45:38;8.10;59.70
17208;DHT22;8720;48.488;9.202;2022-11-20T02:48:06;8.20;59.70
17208;DHT22;8720;48.488;9.202;2022-11-20T02:50:37;8.20;59.40
17208;DHT22;8720;48.488;9.202;2022-11-20T02:53:06;8.30;59.20
17208;DHT22;8720;48.488;9.202;2022-11-20T02:55:33;8.40;59.20
17208;DHT22;8720;48.488;9.202;2022-11-20T02:58:02;8.40;59.10
17208;DHT22;8720;48.488;9.202;2022-11-20T03:03:11;8.50;59.00
17208;DHT22;8720;48.488;9.202;2022-11-20T03:05:38;8.60;58.80
17208;DHT22;8720;48.488;9.202;2022-11-20T03:08:08;8.60;58.70
17208;DHT22;8720;48.488;9.202;2022-11-20T03:10:35;8.60;58.40
17208;DHT22;8720;48.488;9.202;2022-11-20T03:13:03;8.60;58.30
17208;DHT22;8720;48.488;9.202;2022-11-20T03:15:31;8.70;58.00
17208;DHT22;8720;48.488;9.202;2022-11-20T03:17:58;8.70;58.10
17208;DHT22;8720;48.488;9.202;2022-11-20T03:20:27;8.70;57.90
17208;DHT22;8720;48.488;9.202;2022-11-20T03:22:54;8.70;57.80
17208;DHT22;8720;48.488;9.202;2022-11-20T03:25:22;8.70;57.70
17208;DHT22;8720;48.488;9.202;2022-11-20T03:27:49;8.70;57.60
17208;DHT22;8720;48.488;9.202;2022-11-20T03:30:18;8.70;58.10
17208;DHT22;8720;48.488;9.202;2022-11-20T03:32:45;8.70;57.20
17208;DHT22;8720;48.488;9.202;2022-11-20T03:35:13;8.70;57.20
17208;DHT22;8720;48.488;9.202;2022-11-20T03:37:40;8.70;57.30
17208;DHT22;8720;48.488;9.202;2022-11-20T03:40:08;8.70;57.20
17208;DHT22;8720;48.488;9.202;2022-11-20T03:42:36;8.70;57.10
17208;DHT22;8720;48.488;9.202;2022-11-20T03:45:12;8.70;57.10
17208;DHT22;8720;48.488;9.202;2022-11-20T03:47:42;8.60;56.90
17208;DHT22;8720;48.488;9.202;2022-11-20T03:50:11;8.70;56.90
17208;DHT22;8720;48.488;9.202;2022-11-20T03:52:39;8.60;56.90
17208;DHT22;8720;48.488;9.202;2022-11-20T03:55:07;8.60;57.10
17208;DHT22;8720;48.488;9.202;2022-11-20T03:57:34;8.60;57.20
17208;DHT22;8720;48.488;9.202;2022-11-20T04:00:03;8.60;57.20
17208;DHT22;8720;48.488;9.202;2022-11-20T04:02:30;8.60;57.10
17208;DHT22;8720;48.488;9.202;2022-11-20T04:04:59;8.60;57.20
17208;DHT22;8720;48.488;9.202;2022-11-20T04:07:26;8.60;57.10
17208;DHT22;8720;48.488;9.202;2022-11-20T04:09:53;8.60;57.30
17208;DHT22;8720;48.488;9.202;2022-11-20T04:12:20;8.70;57.90
17208;DHT22;8720;48.488;9.202;2022-11-20T04:14:47;8.70;57.30
17208;DHT22;8720;48.488;9.202;2022-11-20T04:17:15;8.70;57.30
17208;DHT22;8720;48.488;9.202;2022-11-20T04:19:42;8.80;57.20
17208;DHT22;8720;48.488;9.202;2022-11-20T04:22:10;8.80;57.10
17208;DHT22;8720;48.488;9.202;2022-11-20T04:24:38;8.80;56.90
17208;DHT22;8720;48.488;9.202;2022-11-20T04:27:05;8.80;57.00
17208;DHT22;8720;48.488;9.202;2022-11-20T04:29:32;8.80;56.90
17208;DHT22;8720;48.488;9.202;2022-11-20T04:31:59;8.90;56.90
17208;DHT22;8720;48.488;9.202;2022-11-20T04:34:26;8.90;56.90
17208;DHT22;8720;48.488;9.202;2022-11-20T04:36:53;8.90;56.90
17208;DHT22;8720;48.488;9.202;2022-11-20T04:39:22;9.00;56.90
17208;DHT22;8720;48.488;9.202;2022-11-20T04:41:49;9.00;56.70
17208;DHT22;8720;48.488;9.202;2022-11-20T04:44:37;9.00;56.70
17208;DHT22;8720;48.488;9.202;2022-11-20T04:47:04;9.10;56.80
17208;DHT22;8720;48.488;9.202;2022-11-20T04:49:32;9.10;56.70
17208;DHT22;8720;48.488;9.202;2022-11-20T04:51:59;9.10;56.50
17208;DHT22;8720;48.488;9.202;2022-11-20T04:54:28;9.10;56.50
17208;DHT22;8720;48.488;9.202;2022-11-20T04:56:55;9.10;56.10
17208;DHT22;8720;48.488;9.202;2022-11-20T04:59:24;9.20;56.30
17208;DHT22;8720;48.488;9.202;2022-11-20T05:01:52;9.20;56.20
17208;DHT22;8720;48.488;9.202;2022-11-20T05:04:19;9.20;56.00
17208;DHT22;8720;48.488;9.202;2022-11-20T05:06:46;9.20;55.90
17208;DHT22;8720;48.488;9.202;2022-11-20T05:09:13;9.20;55.90
17208;DHT22;8720;48.488;9.202;2022-11-20T05:11:42;9.20;55.90
17208;DHT22;8720;48.488;9.202;2022-11-20T05:14:09;9.20;55.50
17208;DHT22;8720;48.488;9.202;2022-11-20T05:16:40;9.20;55.50
17208;DHT22;8720;48.488;9.202;2022-11-20T05:19:08;9.20;55.40
17208;DHT22;8720;48.488;9.202;2022-11-20T05:21:35;9.20;55.40
17208;DHT22;8720;48.488;9.202;2022-11-20T05:24:03;9.20;55.40
17208;DHT22;8720;48.488;9.202;2022-11-20T05:26:31;9.30;55.50
17208;DHT22;8720;48.488;9.202;2022-11-20T05:29:00;9.20;55.30
17208;DHT22;8720;48.488;9.202;2022-11-20T05:31:27;9.20;55.80
17208;DHT22;8720;48.488;9.202;2022-11-20T05:33:55;9.20;55.40
17208;DHT22;8720;48.488;9.202;2022-11-20T05:36:23;9.20;55.20
17208;DHT22;8720;48.488;9.202;2022-11-20T05:38:54;9.20;55.20
17208;DHT22;8720;48.488;9.202;2022-11-20T05:41:22;9.20;55.00
17208;DHT22;8720;48.488;9.202;2022-11-20T05:43:49;9.20;55.10
17208;DHT22;8720;48.488;9.202;2022-11-20T05:46:19;9.20;54.90
17208;DHT22;8720;48.488;9.202;2022-11-20T05:48:47;9.10;54.60
17208;DHT22;8720;48.488;9.202;2022-11-20T05:51:17;9.10;54.90
17208;DHT22;8720;48.488;9.202;2022-11-20T05:53:45;9.10;54.50
17208;DHT22;8720;48.488;9.202;2022-11-20T05:56:14;9.10;54.70
17208;DHT22;8720;48.488;9.202;2022-11-20T05:58:44;9.10;54.50
17208;DHT22;8720;48.488;9.202;2022-11-20T06:01:14;9.10;54.60
17208;DHT22;8720;48.488;9.202;2022-11-20T06:03:45;9.10;55.00
17208;DHT22;8720;48.488;9.202;2022-11-20T06:06:13;9.00;54.20
17208;DHT22;8720;48.488;9.202;2022-11-20T06:08:42;9.00;54.50
17208;DHT22;8720;48.488;9.202;2022-11-20T06:11:13;9.00;54.50
17208;DHT22;8720;48.488;9.202;2022-11-20T06:13:41;9.00;54.80
17208;DHT22;8720;48.488;9.202;2022-11-20T06:16:10;9.00;54.50
17208;DHT22;8720;48.488;9.202;2022-11-20T06:18:38;9.00;54.50
17208;DHT22;8720;48.488;9.202;2022-11-20T06:21:08;9.00;54.60
17208;DHT22;8720;48.488;9.202;2022-11-20T06:23:38;9.00;54.50
17208;DHT22;8720;48.488;9.202;2022-11-20T06:26:07;8.90;54.60
17208;DHT22;8720;48.488;9.202;2022-11-20T06:28:35;8.90;54.50
17208;DHT22;8720;48.488;9.202;2022-11-20T06:31:03;8.90;54.70
17208;DHT22;8720;48.488;9.202;2022-11-20T06:33:31;8.90;54.60
17208;DHT22;8720;48.488;9.202;2022-11-20T06:35:59;8.90;54.80
17208;DHT22;8720;48.488;9.202;2022-11-20T06:38:29;8.90;54.70
17208;DHT22;8720;48.488;9.202;2022-11-20T06:40:58;8.90;54.60
17208;DHT22;8720;48.488;9.202;2022-11-20T06:43:25;8.90;54.80
17208;DHT22;8720;48.488;9.202;2022-11-20T06:45:56;8.90;54.90
17208;DHT22;8720;48.488;9.202;2022-11-20T06:48:26;8.90;54.70
17208;DHT22;8720;48.488;9.202;2022-11-20T06:50:54;8.90;54.70
17208;DHT22;8720;48.488;9.202;2022-11-20T06:53:22;8.90;54.80
17208;DHT22;8720;48.488;9.202;2022-11-20T06:55:51;8.90;54.80
17208;DHT22;8720;48.488;9.202;2022-11-20T06:58:19;8.90;54.60
17208;DHT22;8720;48.488;9.202;2022-11-20T07:00:46;8.90;54.90
17208;DHT22;8720;48.488;9.202;2022-11-20T07:03:13;8.90;54.90
17208;DHT22;8720;48.488;9.202;2022-11-20T07:05:40;8.90;54.90
17208;DHT22;8720;48.488;9.202;2022-11-20T07:08:09;8.90;54.90
17208;DHT22;8720;48.488;9.202;2022-11-20T07:10:36;9.00;55.00
17208;DHT22;8720;48.488;9.202;2022-11-20T07:13:04;9.00;55.00
17208;DHT22;8720;48.488;9.202;2022-11-20T07:15:32;9.00;54.90
17208;DHT22;8720;48.488;9.202;2022-11-20T07:17:59;9.00;55.10
17208;DHT22;8720;48.488;9.202;2022-11-20T07:20:27;9.00;55.20
17208;DHT22;8720;48.488;9.202;2022-11-20T07:22:55;9.00;55.20
17208;DHT22;8720;48.488;9.202;2022-11-20T07:25:24;9.10;55.20
17208;DHT22;8720;48.488;9.202;2022-11-20T07:27:57;9.10;55.20
17208;DHT22;8720;48.488;9.202;2022-11-20T07:30:28;9.10;55.00
17208;DHT22;8720;48.488;9.202;2022-11-20T07:32:56;9.10;55.00
17208;DHT22;8720;48.488;9.202;2022-11-20T07:35:24;9.10;55.10
17208;DHT22;8720;48.488;9.202;2022-11-20T07:37:51;9.20;55.30
17208;DHT22;8720;48.488;9.202;2022-11-20T07:40:18;9.20;55.40
17208;DHT22;8720;48.488;9.202;2022-11-20T07:42:49;9.20;55.40
17208;DHT22;8720;48.488;9.202;2022-11-20T07:45:18;9.20;55.10
17208;DHT22;8720;48.488;9.202;2022-11-20T07:47:47;9.30;55.40
17208;DHT22;8720;48.488;9.202;2022-11-20T07:50:15;9.30;55.20
17208;DHT22;8720;48.488;9.202;2022-11-20T07:52:43;9.30;55.40
17208;DHT22;8720;48.488;9.202;2022-11-20T07:55:11;9.40;55.40
17208;DHT22;8720;48.488;9.202;2022-11-20T07:57:38;9.40;55.20
17208;DHT22;8720;48.488;9.202;2022-11-20T08:00:08;9.40;55.30
17208;DHT22;8720;48.488;9.202;2022-11-20T08:02:40;9.40;55.20
17208;DHT22;8720;48.488;9.202;2022-11-20T08:05:09;9.50;55.40
17208;DHT22;8720;48.488;9.202;2022-11-20T08:07:37;9.50;55.20
17208;DHT22;8720;48.488;9.202;2022-11-20T08:10:06;9.60;55.30
17208;DHT22;8720;48.488;9.202;2022-11-20T08:12:34;9.60;55.30
17208;DHT22;8720;48.488;9.202;2022-11-20T08:15:19;9.70;55.30
17208;DHT22;8720;48.488;9.202;2022-11-20T08:17:47;9.70;55.20
17208;DHT22;8720;48.488;9.202;2022-11-20T08:20:15;9.70;55.10
17208;DHT22;8720;48.488;9.202;2022-11-20T08:22:43;9.80;55.00
17208;DHT22;8720;48.488;9.202;2022-11-20T08:25:11;9.80;55.40
17208;DHT22;8720;48.488;9.202;2022-11-20T08:27:38;9.80;54.90
17208;DHT22;8720;48.488;9.202;2022-11-20T08:30:06;9.90;55.00
17208;DHT22;8720;48.488;9.202;2022-11-20T08:32:35;9.80;54.80
17208;DHT22;8720;48.488;9.202;2022-11-20T08:35:03;9.90;55.00
17208;DHT22;8720;48.488;9.202;2022-11-20T08:37:32;9.90;54.90
17208;DHT22;8720;48.488;9.202;2022-11-20T08:39:59;10.00;53.80
17208;DHT22;8720;48.488;9.202;2022-11-20T08:42:27;10.00;53.90
17208;DHT22;8720;48.488;9.202;2022-11-20T08:44:54;10.00;53.80
17208;DHT22;8720;48.488;9.202;2022-11-20T08:47:22;10.00;53.80
17208;DHT22;8720;48.488;9.202;2022-11-20T08:49:49;10.00;53.70
17208;DHT22;8720;48.488;9.202;2022-11-20T08:52:16;10.10;53.80
17208;DHT22;8720;48.488;9.202;2022-11-20T08:54:45;10.10;53.90
17208;DHT22;8720;48.488;9.202;2022-11-20T08:57:12;10.10;53.80
17208;DHT22;8720;48.488;9.202;2022-11-20T08:59:39;10.10;54.00
17208;DHT22;8720;48.488;9.202;2022-11-20T09:02:07;10.20;54.00
17208;DHT22;8720;48.488;9.202;2022-11-20T09:04:35;10.20;53.90
17208;DHT22;8720;48.488;9.202;2022-11-20T09:07:02;10.30;54.10
17208;DHT22;8720;48.488;9.202;2022-11-20T09:09:30;10.30;54.00
17208;DHT22;8720;48.488;9.202;2022-11-20T09:11:59;10.30;54.00
17208;DHT22;8720;48.488;9.202;2022-11-20T09:14:26;10.30;53.80
17208;DHT22;8720;48.488;9.202;2022-11-20T09:16:55;10.40;54.00
17208;DHT22;8720;48.488;9.202;2022-11-20T09:19:24;10.40;53.90
17208;DHT22;8720;48.488;9.202;2022-11-20T09:21:51;10.40;54.00
17208;DHT22;8720;48.488;9.202;2022-11-20T09:24:19;10.50;54.20
17208;DHT22;8720;48.488;9.202;2022-11-20T09:26:47;10.40;54.00
17208;DHT22;8720;48.488;9.202;2022-11-20T09:29:16;10.50;54.20
17208;DHT22;8720;48.488;9.202;2022-11-20T09:31:43;10.50;53.90
17208;DHT22;8720;48.488;9.202;2022-11-20T09:34:10;10.50;53.90
17208;DHT22;8720;48.488;9.202;2022-11-20T09:36:38;10.50;53.90
17208;DHT22;8720;48.488;9.202;2022-11-20T09:39:05;10.50;54.10
17208;DHT22;8720;48.488;9.202;2022-11-20T09:41:53;10.50;54.10
17208;DHT22;8720;48.488;9.202;2022-11-20T09:44:42;10.50;53.70
17208;DHT22;8720;48.488;9.202;2022-11-20T09:47:26;10.50;53.90
17208;DHT22;8720;48.488;9.202;2022-11-20T09:50:19;10.50;54.10
17208;DHT22;8720;48.488;9.202;2022-11-20T09:53:10;10.50;54.00
17208;DHT22;8720;48.488;9.202;2022-11-20T09:55:40;10.50;54.20
17208;DHT22;8720;48.488;9.202;2022-11-20T09:58:14;10.50;54.50
17208;DHT22;8720;48.488;9.202;2022-11-20T10:00:49;10.50;54.40
17208;DHT22;8720;48.488;9.202;2022-11-20T10:03:29;10.50;54.40
17208;DHT22;8720;48.488;9.202;2022-11-20T10:06:10;10.40;54.40
17208;DHT22;8720;48.488;9.202;2022-11-20T10:08:43;10.40;54.40
17208;DHT22;8720;48.488;9.202;2022-11-20T10:11:20;10.40;54.40
17208;DHT22;8720;48.488;9.202;2022-11-20T10:14:14;10.40;54.40
17208;DHT22;8720;48.488;9.202;2022-11-20T10:17:03;10.40;54.70
17208;DHT22;8720;48.488;9.202;2022-11-20T10:19:47;10.40;55.00
17208;DHT22;8720;48.488;9.202;2022-11-20T10:22:47;10.40;55.00
17208;DHT22;8720;48.488;9.202;2022-11-20T10:25:36;10.40;54.90
17208;DHT22;8720;48.488;9.202;2022-11-20T10:28:27;10.40;54.80
17208;DHT22;8720;48.488;9.202;2022-11-20T10:31:29;10.40;54.80
17208;DHT22;8720;48.488;9.202;2022-11-20T10:34:05;10.40;54.90
17208;DHT22;8720;48.488;9.202;2022-11-20T10:36:43;10.40;55.20
17208;DHT22;8720;48.488;9.202;2022-11-20T10:39:21;10.40;55.40
17208;DHT22;8720;48.488;9.202;2022-11-20T10:41:56;10.50;55.50
17208;DHT22;8720;48.488;9.202;2022-11-20T10:44:27;10.50;56.20
17208;DHT22;8720;48.488;9.202;2022-11-20T10:47:15;10.50;55.20
17208;DHT22;8720;48.488;9.202;2022-11-20T10:49:52;10.50;55.30
17208;DHT22;8720;48.488;9.202;2022-11-20T10:52:34;10.50;55.40
17208;DHT22;8720;48.488;9.202;2022-11-20T10:55:15;10.60;55.60
17208;DHT22;8720;48.488;9.202;2022-11-20T10:58:03;10.60;55.70
17208;DHT22;8720;48.488;9.202;2022-11-20T11:00:39;10.60;55.60
17208;DHT22;8720;48.488;9.202;2022-11-20T11:03:20;10.70;55.90
17208;DHT22;8720;48.488;9.202;2022-11-20T11:06:00;10.70;55.40
17208;DHT22;8720;48.488;9.202;2022-11-20T11:08:37;10.70;55.80
17208;DHT22;8720;48.488;9.202;2022-11-20T11:11:18;10.80;55.90
17208;DHT22;8720;48.488;9.202;2022-11-20T11:14:05;10.80;55.60
17208;DHT22;8720;48.488;9.202;2022-11-20T11:16:34;10.80;55.70
17208;DHT22;8720;48.488;9.202;2022-11-20T11:19:05;10.80;55.90
17208;DHT22;8720;48.488;9.202;2022-11-20T11:21:35;10.90;55.90
17208;DHT22;8720;48.488;9.202;2022-11-20T11:24:19;10.90;56.10
17208;DHT22;8720;48.488;9.202;2022-11-20T11:26:55;10.90;56.00
17208;DHT22;8720;48.488;9.202;2022-11-20T11:29:30;10.90;55.90
17208;DHT22;8720;48.488;9.202;2022-11-20T11:32:06;10.90;56.30
17208;DHT22;8720;48.488;9.202;2022-11-20T11:34:35;11.00;56.10
17208;DHT22;8720;48.488;9.202;2022-11-20T11:37:05;11.00;56.70
17208;DHT22;8720;48.488;9.202;2022-11-20T11:39:41;11.10;56.50
17208;DHT22;8720;48.488;9.202;2022-11-20T11:42:13;11.20;56.30
17208;DHT22;8720;48.488;9.202;2022-11-20T11:44:48;11.30;56.30
17208;DHT22;8720;48.488;9.202;2022-11-20T11:47:36;11.30;56.30
17208;DHT22;8720;48.488;9.202;2022-11-20T11:50:16;11.40;56.30
17208;DHT22;8720;48.488;9.202;2022-11-20T11:53:03;11.50;55.90
17208;DHT22;8720;48.488;9.202;2022-11-20T11:55:39;11.60;55.60
17208;DHT22;8720;48.488;9.202;2022-11-20T11:58:16;11.60;55.50
17208;DHT22;8720;48.488;9.202;2022-11-20T12:00:54;11.70;55.10
17208;DHT22;8720;48.488;9.202;2022-11-20T12:03:32;11.80;55.20
17208;DHT22;8720;48.488;9.202;2022-11-20T12:06:06;11.80;54.70
17208;DHT22;8720;48.488;9.202;2022-11-20T12:08:44;11.90;54.70
17208;DHT22;8720;48.488;9.202;2022-11-20T12:11:24;11.90;54.40
17208;DHT22;8720;48.488;9.202;2022-11-20T12:14:01;11.90;54.00
17208;DHT22;8720;48.488;9.202;2022-11-20T12:16:35;11.90;54.40
17208;DHT22;8720;48.488;9.202;2022-11-20T12:19:10;11.90;54.00
17208;DHT22;8720;48.488;9.202;2022-11-20T12:21:47;11.90;53.90
17208;DHT22;8720;48.488;9.202;2022-11-20T12:24:41;12.00;53.60
17208;DHT22;8720;48.488;9.202;2022-11-20T12:27:40;12.00;53.10
17208;DHT22;8720;48.488;9.202;2022-11-20T12:30:26;12.00;52.70
17208;DHT22;8720;48.488;9.202;2022-11-20T12:33:08;12.00;53.30
17208;DHT22;8720;48.488;9.202;2022-11-20T12:36:07;12.00;52.60
17208;DHT22;8720;48.488;9.202;2022-11-20T12:38:59;11.90;52.50
17208;DHT22;8720;48.488;9.202;2022-11-20T12:41:55;11.80;52.30
17208;DHT22;8720;48.488;9.202;2022-11-20T12:45:14;11.80;52.50
17208;DHT22;8720;48.488;9.202;2022-11-20T12:48:33;11.80;52.50
17208;DHT22;8720;48.488;9.202;2022-11-20T12:51:49;11.80;53.00
17208;DHT22;8720;48.488;9.202;2022-11-20T12:54:50;11.70;52.80
17208;DHT22;8720;48.488;9.202;2022-11-20T12:57:45;11.50;51.90
17208;DHT22;8720;48.488;9.202;2022-11-20T13:00:21;11.50;52.70
17208;DHT22;8720;48.488;9.202;2022-11-20T13:06:11;11.50;52.50
17208;DHT22;8720;48.488;9.202;2022-11-20T13:08:44;11.50;52.90
17208;DHT22;8720;48.488;9.202;2022-11-20T13:11:19;11.50;53.00
17208;DHT22;8720;48.488;9.202;2022-11-20T13:14:08;11.50;52.70
17208;DHT22;8720;48.488;9.202;2022-11-20T13:16:46;11.50;52.20
17208;DHT22;8720;48.488;9.202;2022-11-20T13:19:19;11.50;52.50
17208;DHT22;8720;48.488;9.202;2022-11-20T13:21:49;11.50;52.90
17208;DHT22;8720;48.488;9.202;2022-11-20T13:24:25;11.40;52.70
17208;DHT22;8720;48.488;9.202;2022-11-20T13:27:04;11.50;52.50
17208;DHT22;8720;48.488;9.202;2022-11-20T13:30:10;11.40;52.30
17208;DHT22;8720;48.488;9.202;2022-11-20T13:32:53;11.40;52.00
17208;DHT22;8720;48.488;9.202;2022-11-20T13:35:27;11.40;51.90
17208;DHT22;8720;48.488;9.202;2022-11-20T13:38:03;11.50;52.30
17208;DHT22;8720;48.488;9.202;2022-11-20T13:40:37;11.40;52.10
17208;DHT22;8720;48.488;9.202;2022-11-20T13:43:19;11.40;52.30
17208;DHT22;8720;48.488;9.202;2022-11-20T13:46:04;11.50;51.80
17208;DHT22;8720;48.488;9.202;2022-11-20T13:48:39;11.50;51.80
17208;DHT22;8720;48.488;9.202;2022-11-20T13:51:25;11.50;52.30
17208;DHT22;8720;48.488;9.202;2022-11-20T13:54:21;11.60;51.70
17208;DHT22;8720;48.488;9.202;2022-11-20T13:57:05;11.60;51.70
17208;DHT22;8720;48.488;9.202;2022-11-20T13:59:54;11.70;52.10
17208;DHT22;8720;48.488;9.202;2022-11-20T14:02:27;11.80;51.70
17208;DHT22;8720;48.488;9.202;2022-11-20T14:04:58;11.80;51.70
17208;DHT22;8720;48.488;9.202;2022-11-20T14:07:33;11.90;51.40
17208;DHT22;8720;48.488;9.202;2022-11-20T14:10:05;11.90;50.80
17208;DHT22;8720;48.488;9.202;2022-11-20T14:12:33;11.90;51.00
17208;DHT22;8720;48.488;9.202;2022-11-20T14:15:02;11.80;50.60
17208;DHT22;8720;48.488;9.202;2022-11-20T14:17:33;11.80;50.50
17208;DHT22;8720;48.488;9.202;2022-11-20T14:20:06;11.70;50.20
17208;DHT22;8720;48.488;9.202;2022-11-20T14:22:38;11.60;50.50
17208;DHT22;8720;48.488;9.202;2022-11-20T14:25:18;11.60;50.70
17208;DHT22;8720;48.488;9.202;2022-11-20T14:27:52;11.50;50.40
17208;DHT22;8720;48.488;9.202;2022-11-20T14:30:23;11.50;50.30
17208;DHT22;8720;48.488;9.202;2022-11-20T14:32:56;11.40;50.50
17208;DHT22;8720;48.488;9.202;2022-11-20T14:35:30;11.40;50.40
17208;DHT22;8720;48.488;9.202;2022-11-20T14:38:02;11.40;50.30
17208;DHT22;8720;48.488;9.202;2022-11-20T14:40:32;11.30;50.30
17208;DHT22;8720;48.488;9.202;2022-11-20T14:43:01;11.30;50.40
17208;DHT22;8720;48.488;9.202;2022-11-20T14:45:44;11.30;50.60
17208;DHT22;8720;48.488;9.202;2022-11-20T14:48:15;11.30;50.60
17208;DHT22;8720;48.488;9.202;2022-11-20T14:50:42;11.30;50.50
17208;DHT22;8720;48.488;9.202;2022-11-20T14:53:10;11.20;50.60
17208;DHT22;8720;48.488;9.202;2022-11-20T14:55:38;11.20;50.50
17208;DHT22;8720;48.488;9.202;2022-11-20T14:58:06;11.20;50.40
17208;DHT22;8720;48.488;9.202;2022-11-20T15:00:53;11.20;50.50
17208;DHT22;8720;48.488;9.202;2022-11-20T15:03:30;11.20;50.10
17208;DHT22;8720;48.488;9.202;2022-11-20T15:05:58;11.10;50.50
17208;DHT22;8720;48.488;9.202;2022-11-20T15:08:25;11.10;50.80
17208;DHT22;8720;48.488;9.202;2022-11-20T15:10:53;11.10;50.70
17208;DHT22;8720;48.488;9.202;2022-11-20T15:13:26;11.10;50.70
17208;DHT22;8720;48.488;9.202;2022-11-20T15:15:58;11.00;50.40
17208;DHT22;8720;48.488;9.202;2022-11-20T15:18:32;11.00;50.80
17208;DHT22;8720;48.488;9.202;2022-11-20T15:21:09;11.00;50.60
17208;DHT22;8720;48.488;9.202;2022-11-20T15:23:38;11.00;50.30
17208;DHT22;8720;48.488;9.202;2022-11-20T15:26:06;11.00;50.50
17208;DHT22;8720;48.488;9.202;2022-11-20T15:28:39;11.00;50.50
17208;DHT22;8720;48.488;9.202;2022-11-20T15:31:10;10.90;50.20
17208;DHT22;8720;48.488;9.202;2022-11-20T15:33:40;10.90;50.20
17208;DHT22;8720;48.488;9.202;2022-11-20T15:36:08;10.80;50.20
17208;DHT22;8720;48.488;9.202;2022-11-20T15:38:35;10.80;50.60
17208;DHT22;8720;48.488;9.202;2022-11-20T15:41:03;10.70;50.70
17208;DHT22;8720;48.488;9.202;2022-11-20T15:43:31;10.70;50.80
17208;DHT22;8720;48.488;9.202;2022-11-20T15:46:00;10.60;50.70
17208;DHT22;8720;48.488;9.202;2022-11-20T15:48:35;10.60;50.80
17208;DHT22;8720;48.488;9.202;2022-11-20T15:51:18;10.50;50.80
17208;DHT22;8720;48.488;9.202;2022-11-20T15:53:51;10.40;50.70
17208;DHT22;8720;48.488;9.202;2022-11-20T15:56:19;10.30;50.40
17208;DHT22;8720;48.488;9.202;2022-11-20T15:58:46;10.20;50.50
17208;DHT22;8720;48.488;9.202;2022-11-20T16:01:15;10.10;50.50
17208;DHT22;8720;48.488;9.202;2022-11-20T16:03:44;10.10;50.40
17208;DHT22;8720;48.488;9.202;2022-11-20T16:06:13;10.00;50.30
17208;DHT22;8720;48.488;9.202;2022-11-20T16:08:41;9.90;50.80
17208;DHT22;8720;48.488;9.202;2022-11-20T16:11:11;9.90;51.00
17208;DHT22;8720;48.488;9.202;2022-11-20T16:13:40;9.80;50.80
17208;DHT22;8720;48.488;9.202;2022-11-20T16:16:28;9.80;50.90
17208;DHT22;8720;48.488;9.202;2022-11-20T16:18:58;9.70;50.80
17208;DHT22;8720;48.488;9.202;2022-11-20T16:21:27;9.70;51.00
17208;DHT22;8720;48.488;9.202;2022-11-20T16:23:57;9.60;50.90
17208;DHT22;8720;48.488;9.202;2022-11-20T16:26:24;9.50;50.90
17208;DHT22;8720;48.488;9.202;2022-11-20T16:28:52;9.50;51.00
17208;DHT22;8720;48.488;9.202;2022-11-20T16:31:20;9.50;51.10
17208;DHT22;8720;48.488;9.202;2022-11-20T16:33:51;9.40;51.10
17208;DHT22;8720;48.488;9.202;2022-11-20T16:36:20;9.40;50.90